Terminal Aerodrome Forecast
Issued by NWS

Home | Current Version | Previous Version | Text Only | Print | Product List | Glossary On
Versions: 1 2 3 4 5 6 7 8 9 10 11 12 13 14 15 16 17 18 19 20 21 22 23 24 25 26 27 28 29 30 31 32 33 34 35 36 37 38 39 40 41 42 43 44
000
FTUS46 KOTX 232330
TAFCOE
TAF
KCOE 232330Z 2400/2424 25012G20KT P6SM -SHRA OVC020
     FM240200 25010KT P6SM BKN030 BKN100
     FM241000 21004KT 2SM BR OVC010
     FM242000 12004KT P6SM SCT010 OVC020
      AMD LTD TO CLD AND VIS=

USA.gov is the U.S. government's official web portal to all federal, state and local government web resources and services.